Malaysia Virtual Airlines Airport Information Service

Kota Bharu

ICAO: WMKC Country: Malaysia
Latitude: 6.16685 Longitude: 102.293
Latest Arrival : FY1144 (WMSA-WMKC) Latest Departure : MH1385 (WMKC-WMKK)


WX CaptureLIVE
Data provided by noaa.gov | Fetched at 15:40:42

METAR : WMKC 261500Z VRB02KT 9999 TS FEW017CB SCT020 29/26 Q1009

TAF : WMKC 261453Z 2614/2712 VRB03KT 9999 FEW020 TEMPO 2614/2616 7000 -TSRA FEW010 FEW017CB BECMG 2703/2705 05006KT FEW018


Runway Data for WMKC
Data provided by openaviationdata.com

Runway ID Mag Var Hdg Length Elevation Surface ILS Freq ILS Id ILS Slope
10 1 100° 6499 ft 16 ft Asphalt -- -- --
28 1 280° 6499 ft 16 ft Asphalt -- -- --

Kota Bharu, Malaysia
Use only for reference purposes



Not for navigational purposes.